Terminal Aerodrome Forecast
Issued by NWS Duluth, MN

Home | Current Version | Previous Version | Text Only | Print | Product List | Glossary On
Versions: 1 2 3 4 5 6 7 8 9 10 11 12 13 14 15 16 17 18 19 20 21 22 23 24 25 26 27 28
114
FTUS43 KDLH 230526
TAFDLH
TAF
KDLH 230526Z 2306/2406 12007KT 3SM BR BKN002
      TEMPO 2306/2308 1SM BR
     FM230800 33005KT 6SM BR SCT002
      TEMPO 2309/2312 2SM BR BKN003
     FM231200 34005KT 6SM BR SCT005 BKN010
     FM231700 03008KT P6SM SCT010 BKN035
     FM232000 08008KT P6SM SCT010 SCT035=

USA.gov is the U.S. government's official web portal to all federal, state and local government web resources and services.